sensor_id;sensor_type;location;lat;lon;timestamp;temperature;humidity
983;DHT22;480;48.124;11.578;2023-02-15T00:02:07;0.50;99.90
983;DHT22;480;48.124;11.578;2023-02-15T00:04:48;0.40;99.90
983;DHT22;480;48.124;11.578;2023-02-15T00:07:18;0.30;99.90
983;DHT22;480;48.124;11.578;2023-02-15T00:09:46;0.30;99.90
983;DHT22;480;48.124;11.578;2023-02-15T00:12:14;0.10;99.90
983;DHT22;480;48.124;11.578;2023-02-15T00:14:43;-0.20;99.90
983;DHT22;480;48.124;11.578;2023-02-15T00:17:10;-0.20;99.90
983;DHT22;480;48.124;11.578;2023-02-15T00:19:38;-0.10;99.90
983;DHT22;480;48.124;11.578;2023-02-15T00:22:06;0.10;99.90
983;DHT22;480;48.124;11.578;2023-02-15T00:24:38;0.00;99.90
983;DHT22;480;48.124;11.578;2023-02-15T00:27:06;-0.10;99.90
983;DHT22;480;48.124;11.578;2023-02-15T00:29:34;-0.10;99.90
983;DHT22;480;48.124;11.578;2023-02-15T00:32:02;0.00;99.90
983;DHT22;480;48.124;11.578;2023-02-15T00:34:29;0.20;99.90
983;DHT22;480;48.124;11.578;2023-02-15T00:36:57;0.50;99.90
983;DHT22;480;48.124;11.578;2023-02-15T00:39:27;0.70;99.90
983;DHT22;480;48.124;11.578;2023-02-15T00:41:57;0.90;99.90
983;DHT22;480;48.124;11.578;2023-02-15T00:44:24;0.90;99.90
983;DHT22;480;48.124;11.578;2023-02-15T00:46:52;0.70;99.90
983;DHT22;480;48.124;11.578;2023-02-15T00:49:19;0.20;99.90
983;DHT22;480;48.124;11.578;2023-02-15T00:51:47;0.20;99.90
983;DHT22;480;48.124;11.578;2023-02-15T00:54:15;0.30;99.90
983;DHT22;480;48.124;11.578;2023-02-15T00:56:43;0.00;99.90
983;DHT22;480;48.124;11.578;2023-02-15T00:59:13;-0.20;99.90
983;DHT22;480;48.124;11.578;2023-02-15T01:01:41;-0.20;99.90
983;DHT22;480;48.124;11.578;2023-02-15T01:04:14;0.10;99.90
983;DHT22;480;48.124;11.578;2023-02-15T01:06:46;0.40;99.90
983;DHT22;480;48.124;11.578;2023-02-15T01:09:14;0.60;99.90
983;DHT22;480;48.124;11.578;2023-02-15T01:11:42;0.40;99.90
983;DHT22;480;48.124;11.578;2023-02-15T01:14:25;0.30;99.90
983;DHT22;480;48.124;11.578;2023-02-15T01:17:06;0.20;99.90
983;DHT22;480;48.124;11.578;2023-02-15T01:19:42;0.00;99.90
983;DHT22;480;48.124;11.578;2023-02-15T01:22:10;-0.10;99.90
983;DHT22;480;48.124;11.578;2023-02-15T01:24:38;-0.30;99.90
983;DHT22;480;48.124;11.578;2023-02-15T01:27:08;-0.30;99.90
983;DHT22;480;48.124;11.578;2023-02-15T01:29:54;-0.10;99.90
983;DHT22;480;48.124;11.578;2023-02-15T01:32:36;-0.10;99.90
983;DHT22;480;48.124;11.578;2023-02-15T01:35:04;-0.40;99.90
983;DHT22;480;48.124;11.578;2023-02-15T01:37:35;-0.50;99.90
983;DHT22;480;48.124;11.578;2023-02-15T01:40:07;-0.30;99.90
983;DHT22;480;48.124;11.578;2023-02-15T01:42:39;0.00;99.90
983;DHT22;480;48.124;11.578;2023-02-15T01:45:20;0.00;99.90
983;DHT22;480;48.124;11.578;2023-02-15T01:47:54;0.10;99.90
983;DHT22;480;48.124;11.578;2023-02-15T01:50:36;0.10;99.90
983;DHT22;480;48.124;11.578;2023-02-15T01:53:11;-0.30;99.90
983;DHT22;480;48.124;11.578;2023-02-15T01:55:44;-0.50;99.90
983;DHT22;480;48.124;11.578;2023-02-15T01:58:22;-0.70;99.90
983;DHT22;480;48.124;11.578;2023-02-15T02:01:07;-0.70;99.90
983;DHT22;480;48.124;11.578;2023-02-15T02:03:43;-0.40;99.90
983;DHT22;480;48.124;11.578;2023-02-15T02:06:15;-0.60;99.90
983;DHT22;480;48.124;11.578;2023-02-15T02:08:47;-0.70;99.90
983;DHT22;480;48.124;11.578;2023-02-15T02:11:15;-0.60;99.90
983;DHT22;480;48.124;11.578;2023-02-15T02:13:46;-0.50;99.90
983;DHT22;480;48.124;11.578;2023-02-15T02:16:20;-0.20;99.90
983;DHT22;480;48.124;11.578;2023-02-15T02:19:14;-0.60;99.90
983;DHT22;480;48.124;11.578;2023-02-15T02:25:44;-0.70;99.90
983;DHT22;480;48.124;11.578;2023-02-15T02:28:34;-0.70;99.90
983;DHT22;480;48.124;11.578;2023-02-15T02:34:14;-0.80;99.90
983;DHT22;480;48.124;11.578;2023-02-15T02:36:52;-0.40;99.90
983;DHT22;480;48.124;11.578;2023-02-15T02:39:28;-0.10;99.90
983;DHT22;480;48.124;11.578;2023-02-15T02:42:05;0.00;99.90
983;DHT22;480;48.124;11.578;2023-02-15T02:44:40;-0.50;99.90
983;DHT22;480;48.124;11.578;2023-02-15T02:47:18;-0.70;99.90
983;DHT22;480;48.124;11.578;2023-02-15T02:49:52;-0.50;99.90
983;DHT22;480;48.124;11.578;2023-02-15T02:52:40;-0.70;99.90
983;DHT22;480;48.124;11.578;2023-02-15T02:55:11;-0.40;99.90
983;DHT22;480;48.124;11.578;2023-02-15T02:57:45;0.00;99.90
983;DHT22;480;48.124;11.578;2023-02-15T03:00:15;0.00;99.90
983;DHT22;480;48.124;11.578;2023-02-15T03:02:46;-0.10;99.90
983;DHT22;480;48.124;11.578;2023-02-15T03:05:29;0.00;99.90
983;DHT22;480;48.124;11.578;2023-02-15T03:08:00;0.20;99.90
983;DHT22;480;48.124;11.578;2023-02-15T03:10:32;0.20;99.90
983;DHT22;480;48.124;11.578;2023-02-15T03:13:02;0.30;99.90
983;DHT22;480;48.124;11.578;2023-02-15T03:15:33;0.50;99.90
983;DHT22;480;48.124;11.578;2023-02-15T03:18:18;0.50;99.90
983;DHT22;480;48.124;11.578;2023-02-15T03:20:49;0.50;99.90
983;DHT22;480;48.124;11.578;2023-02-15T03:23:20;0.50;99.90
983;DHT22;480;48.124;11.578;2023-02-15T03:25:52;0.60;99.90
983;DHT22;480;48.124;11.578;2023-02-15T03:28:23;0.70;99.90
983;DHT22;480;48.124;11.578;2023-02-15T03:30:55;0.70;99.90
983;DHT22;480;48.124;11.578;2023-02-15T03:33:26;0.60;99.90
983;DHT22;480;48.124;11.578;2023-02-15T03:36:00;0.80;99.90
983;DHT22;480;48.124;11.578;2023-02-15T03:38:34;0.90;99.90
983;DHT22;480;48.124;11.578;2023-02-15T03:41:04;1.00;99.90
983;DHT22;480;48.124;11.578;2023-02-15T03:43:42;0.90;99.90
983;DHT22;480;48.124;11.578;2023-02-15T03:46:15;1.00;99.90
983;DHT22;480;48.124;11.578;2023-02-15T03:48:49;1.10;99.90
983;DHT22;480;48.124;11.578;2023-02-15T03:51:22;1.00;99.90
983;DHT22;480;48.124;11.578;2023-02-15T03:54:06;1.10;99.90
983;DHT22;480;48.124;11.578;2023-02-15T03:56:37;1.20;99.90
983;DHT22;480;48.124;11.578;2023-02-15T03:59:05;1.30;99.90
983;DHT22;480;48.124;11.578;2023-02-15T04:01:58;1.20;99.90
983;DHT22;480;48.124;11.578;2023-02-15T04:04:34;1.20;99.90
983;DHT22;480;48.124;11.578;2023-02-15T04:07:05;1.20;99.90
983;DHT22;480;48.124;11.578;2023-02-15T04:09:34;1.20;99.90
983;DHT22;480;48.124;11.578;2023-02-15T04:12:19;1.20;99.90
983;DHT22;480;48.124;11.578;2023-02-15T04:14:46;1.30;99.90
983;DHT22;480;48.124;11.578;2023-02-15T04:17:31;1.30;99.90
983;DHT22;480;48.124;11.578;2023-02-15T04:19:58;1.20;99.90
983;DHT22;480;48.124;11.578;2023-02-15T04:22:44;1.10;99.90
983;DHT22;480;48.124;11.578;2023-02-15T04:25:28;1.20;99.90
983;DHT22;480;48.124;11.578;2023-02-15T04:27:55;1.00;99.90
983;DHT22;480;48.124;11.578;2023-02-15T04:30:24;1.10;99.90
983;DHT22;480;48.124;11.578;2023-02-15T04:32:53;1.10;99.90
983;DHT22;480;48.124;11.578;2023-02-15T04:35:21;1.10;99.90
983;DHT22;480;48.124;11.578;2023-02-15T04:37:50;1.10;99.90
983;DHT22;480;48.124;11.578;2023-02-15T04:40:18;1.10;99.90
983;DHT22;480;48.124;11.578;2023-02-15T04:42:47;1.10;99.90
983;DHT22;480;48.124;11.578;2023-02-15T04:45:14;1.20;99.90
983;DHT22;480;48.124;11.578;2023-02-15T04:47:42;1.10;99.90
983;DHT22;480;48.124;11.578;2023-02-15T04:50:10;1.00;99.90
983;DHT22;480;48.124;11.578;2023-02-15T04:52:37;1.10;99.90
983;DHT22;480;48.124;11.578;2023-02-15T04:55:06;1.20;99.90
983;DHT22;480;48.124;11.578;2023-02-15T04:57:34;1.20;99.90
983;DHT22;480;48.124;11.578;2023-02-15T05:00:02;1.20;99.90
983;DHT22;480;48.124;11.578;2023-02-15T05:02:30;1.10;99.90
983;DHT22;480;48.124;11.578;2023-02-15T05:04:57;1.20;99.90
983;DHT22;480;48.124;11.578;2023-02-15T05:07:24;1.20;99.90
983;DHT22;480;48.124;11.578;2023-02-15T05:09:51;0.80;99.90
983;DHT22;480;48.124;11.578;2023-02-15T05:12:20;0.40;99.90
983;DHT22;480;48.124;11.578;2023-02-15T05:14:47;0.60;99.90
983;DHT22;480;48.124;11.578;2023-02-15T05:17:14;0.80;99.90
983;DHT22;480;48.124;11.578;2023-02-15T05:19:42;0.50;99.90
983;DHT22;480;48.124;11.578;2023-02-15T05:22:09;0.20;99.90
983;DHT22;480;48.124;11.578;2023-02-15T05:24:36;0.10;99.90
983;DHT22;480;48.124;11.578;2023-02-15T05:27:22;-0.30;99.90
983;DHT22;480;48.124;11.578;2023-02-15T05:30:08;-0.20;99.90
983;DHT22;480;48.124;11.578;2023-02-15T05:32:37;0.10;99.90
983;DHT22;480;48.124;11.578;2023-02-15T05:35:04;0.20;99.90
983;DHT22;480;48.124;11.578;2023-02-15T05:37:31;0.30;99.90
983;DHT22;480;48.124;11.578;2023-02-15T05:39:59;0.40;99.90
983;DHT22;480;48.124;11.578;2023-02-15T05:42:28;0.50;99.90
983;DHT22;480;48.124;11.578;2023-02-15T05:44:56;0.50;99.90
983;DHT22;480;48.124;11.578;2023-02-15T05:47:23;0.50;99.90
983;DHT22;480;48.124;11.578;2023-02-15T05:49:51;0.50;99.90
983;DHT22;480;48.124;11.578;2023-02-15T05:52:18;0.60;99.90
983;DHT22;480;48.124;11.578;2023-02-15T05:54:45;0.70;99.90
983;DHT22;480;48.124;11.578;2023-02-15T05:57:12;0.60;99.90
983;DHT22;480;48.124;11.578;2023-02-15T05:59:40;0.80;99.90
983;DHT22;480;48.124;11.578;2023-02-15T06:02:07;0.80;99.90
983;DHT22;480;48.124;11.578;2023-02-15T06:04:34;0.90;99.90
983;DHT22;480;48.124;11.578;2023-02-15T06:07:01;0.70;99.90
983;DHT22;480;48.124;11.578;2023-02-15T06:09:28;0.70;99.90
983;DHT22;480;48.124;11.578;2023-02-15T06:11:57;0.80;99.90
983;DHT22;480;48.124;11.578;2023-02-15T06:14:24;0.60;99.90
983;DHT22;480;48.124;11.578;2023-02-15T06:16:52;0.50;99.90
983;DHT22;480;48.124;11.578;2023-02-15T06:19:19;0.60;99.90
983;DHT22;480;48.124;11.578;2023-02-15T06:21:48;0.60;99.90
983;DHT22;480;48.124;11.578;2023-02-15T06:24:15;0.80;99.90
983;DHT22;480;48.124;11.578;2023-02-15T06:26:42;0.80;99.90
983;DHT22;480;48.124;11.578;2023-02-15T06:29:09;0.80;99.90
983;DHT22;480;48.124;11.578;2023-02-15T06:31:37;0.60;99.90
983;DHT22;480;48.124;11.578;2023-02-15T06:34:05;0.50;99.90
983;DHT22;480;48.124;11.578;2023-02-15T06:36:33;0.50;99.90
983;DHT22;480;48.124;11.578;2023-02-15T06:39:00;0.60;99.90
983;DHT22;480;48.124;11.578;2023-02-15T06:41:27;0.30;99.90
983;DHT22;480;48.124;11.578;2023-02-15T06:43:54;0.30;99.90
983;DHT22;480;48.124;11.578;2023-02-15T06:46:21;0.30;99.90
983;DHT22;480;48.124;11.578;2023-02-15T06:48:48;0.20;99.90
983;DHT22;480;48.124;11.578;2023-02-15T06:51:17;0.20;99.90
983;DHT22;480;48.124;11.578;2023-02-15T06:53:44;0.40;99.90
983;DHT22;480;48.124;11.578;2023-02-15T06:56:11;0.30;99.90
983;DHT22;480;48.124;11.578;2023-02-15T06:58:39;0.20;99.90
983;DHT22;480;48.124;11.578;2023-02-15T07:01:07;0.30;99.90
983;DHT22;480;48.124;11.578;2023-02-15T07:03:34;0.40;99.90
983;DHT22;480;48.124;11.578;2023-02-15T07:06:03;0.60;99.90
983;DHT22;480;48.124;11.578;2023-02-15T07:08:35;0.70;99.90
983;DHT22;480;48.124;11.578;2023-02-15T07:11:03;0.80;99.90
983;DHT22;480;48.124;11.578;2023-02-15T07:13:48;1.00;99.90
983;DHT22;480;48.124;11.578;2023-02-15T07:16:15;0.80;99.90
983;DHT22;480;48.124;11.578;2023-02-15T07:18:42;1.00;99.90
983;DHT22;480;48.124;11.578;2023-02-15T07:21:09;1.00;99.90
983;DHT22;480;48.124;11.578;2023-02-15T07:23:39;1.10;99.90
983;DHT22;480;48.124;11.578;2023-02-15T07:26:06;0.70;99.90
983;DHT22;480;48.124;11.578;2023-02-15T07:28:34;0.30;99.90
983;DHT22;480;48.124;11.578;2023-02-15T07:31:02;0.40;99.90
983;DHT22;480;48.124;11.578;2023-02-15T07:33:30;0.30;99.90
983;DHT22;480;48.124;11.578;2023-02-15T07:35:58;0.20;99.90
983;DHT22;480;48.124;11.578;2023-02-15T07:38:27;-0.10;99.90
983;DHT22;480;48.124;11.578;2023-02-15T07:40:59;-0.40;99.90
983;DHT22;480;48.124;11.578;2023-02-15T07:43:27;-0.30;99.90
983;DHT22;480;48.124;11.578;2023-02-15T07:45:58;-0.50;99.90
983;DHT22;480;48.124;11.578;2023-02-15T07:48:25;-0.60;99.90
983;DHT22;480;48.124;11.578;2023-02-15T07:50:52;-0.50;99.90
983;DHT22;480;48.124;11.578;2023-02-15T07:53:19;-0.30;99.90
983;DHT22;480;48.124;11.578;2023-02-15T07:55:46;-0.10;99.90
983;DHT22;480;48.124;11.578;2023-02-15T07:58:15;0.00;99.90
983;DHT22;480;48.124;11.578;2023-02-15T08:00:42;-0.50;99.90
983;DHT22;480;48.124;11.578;2023-02-15T08:03:30;-0.70;99.90
983;DHT22;480;48.124;11.578;2023-02-15T08:05:58;-0.70;99.90
983;DHT22;480;48.124;11.578;2023-02-15T08:08:26;-0.80;99.90
983;DHT22;480;48.124;11.578;2023-02-15T08:11:01;-1.00;99.90
983;DHT22;480;48.124;11.578;2023-02-15T08:13:49;-1.00;99.90
983;DHT22;480;48.124;11.578;2023-02-15T08:16:24;-1.10;99.90
983;DHT22;480;48.124;11.578;2023-02-15T08:18:51;-1.10;99.90
983;DHT22;480;48.124;11.578;2023-02-15T08:21:20;-1.20;99.90
983;DHT22;480;48.124;11.578;2023-02-15T08:23:47;-1.20;99.90
983;DHT22;480;48.124;11.578;2023-02-15T08:26:14;-1.00;99.90
983;DHT22;480;48.124;11.578;2023-02-15T08:28:42;-0.90;99.90
983;DHT22;480;48.124;11.578;2023-02-15T08:31:12;-1.00;99.90
983;DHT22;480;48.124;11.578;2023-02-15T08:33:41;-1.10;99.90
983;DHT22;480;48.124;11.578;2023-02-15T08:36:12;-0.90;99.90
983;DHT22;480;48.124;11.578;2023-02-15T08:38:39;-0.80;99.90
983;DHT22;480;48.124;11.578;2023-02-15T08:41:15;-0.80;99.90
983;DHT22;480;48.124;11.578;2023-02-15T08:43:45;-0.70;99.90
983;DHT22;480;48.124;11.578;2023-02-15T08:46:15;-0.60;99.90
983;DHT22;480;48.124;11.578;2023-02-15T08:48:43;-0.50;99.90
983;DHT22;480;48.124;11.578;2023-02-15T08:51:12;-0.30;99.90
983;DHT22;480;48.124;11.578;2023-02-15T08:53:42;0.10;99.90
983;DHT22;480;48.124;11.578;2023-02-15T08:56:09;0.20;99.90
983;DHT22;480;48.124;11.578;2023-02-15T08:58:37;0.30;99.90
983;DHT22;480;48.124;11.578;2023-02-15T09:01:12;0.30;99.90
983;DHT22;480;48.124;11.578;2023-02-15T09:03:41;0.40;99.90
983;DHT22;480;48.124;11.578;2023-02-15T09:06:08;0.80;99.90
983;DHT22;480;48.124;11.578;2023-02-15T09:08:36;1.10;99.90
983;DHT22;480;48.124;11.578;2023-02-15T09:11:06;1.30;99.90
983;DHT22;480;48.124;11.578;2023-02-15T09:13:35;1.20;99.90
983;DHT22;480;48.124;11.578;2023-02-15T09:16:03;1.40;99.90
983;DHT22;480;48.124;11.578;2023-02-15T09:18:33;1.60;99.90
983;DHT22;480;48.124;11.578;2023-02-15T09:21:06;1.70;99.90
983;DHT22;480;48.124;11.578;2023-02-15T09:23:34;1.90;99.90
983;DHT22;480;48.124;11.578;2023-02-15T09:26:06;2.00;99.90
983;DHT22;480;48.124;11.578;2023-02-15T09:28:34;2.10;99.90
983;DHT22;480;48.124;11.578;2023-02-15T09:31:06;2.20;99.90
983;DHT22;480;48.124;11.578;2023-02-15T09:33:38;2.30;99.90
983;DHT22;480;48.124;11.578;2023-02-15T09:36:15;2.60;99.90
983;DHT22;480;48.124;11.578;2023-02-15T09:38:43;2.90;99.90
983;DHT22;480;48.124;11.578;2023-02-15T09:41:40;3.00;99.90
983;DHT22;480;48.124;11.578;2023-02-15T09:44:17;3.10;99.90
983;DHT22;480;48.124;11.578;2023-02-15T09:47:02;3.10;99.90
983;DHT22;480;48.124;11.578;2023-02-15T09:49:36;3.40;99.90
983;DHT22;480;48.124;11.578;2023-02-15T09:52:34;3.70;99.90
983;DHT22;480;48.124;11.578;2023-02-15T09:58:07;3.60;99.90
983;DHT22;480;48.124;11.578;2023-02-15T10:00:46;3.20;99.90
983;DHT22;480;48.124;11.578;2023-02-15T10:03:34;3.30;99.90
983;DHT22;480;48.124;11.578;2023-02-15T10:06:19;3.40;99.90
983;DHT22;480;48.124;11.578;2023-02-15T10:11:58;3.90;99.90
983;DHT22;480;48.124;11.578;2023-02-15T10:14:42;3.80;99.90
983;DHT22;480;48.124;11.578;2023-02-15T10:17:21;4.20;99.90
983;DHT22;480;48.124;11.578;2023-02-15T10:20:00;4.10;99.90
983;DHT22;480;48.124;11.578;2023-02-15T10:22:46;4.30;99.90
983;DHT22;480;48.124;11.578;2023-02-15T10:25:29;4.20;99.90
983;DHT22;480;48.124;11.578;2023-02-15T10:28:02;4.40;99.90
983;DHT22;480;48.124;11.578;2023-02-15T10:30:37;4.50;99.90
983;DHT22;480;48.124;11.578;2023-02-15T10:33:15;4.70;99.90
983;DHT22;480;48.124;11.578;2023-02-15T10:35:53;4.90;99.90
983;DHT22;480;48.124;11.578;2023-02-15T10:38:29;5.20;99.90
983;DHT22;480;48.124;11.578;2023-02-15T10:41:11;5.40;99.90
983;DHT22;480;48.124;11.578;2023-02-15T10:43:52;5.70;99.90
983;DHT22;480;48.124;11.578;2023-02-15T10:46:48;5.80;99.90
983;DHT22;480;48.124;11.578;2023-02-15T10:49:47;5.90;99.90
983;DHT22;480;48.124;11.578;2023-02-15T10:52:27;6.00;99.90
983;DHT22;480;48.124;11.578;2023-02-15T10:55:02;6.10;99.90
983;DHT22;480;48.124;11.578;2023-02-15T10:57:41;6.20;99.90
983;DHT22;480;48.124;11.578;2023-02-15T11:00:20;6.10;99.90
983;DHT22;480;48.124;11.578;2023-02-15T11:03:04;6.30;99.90
983;DHT22;480;48.124;11.578;2023-02-15T11:05:42;6.40;99.90
983;DHT22;480;48.124;11.578;2023-02-15T11:08:15;6.70;99.90
983;DHT22;480;48.124;11.578;2023-02-15T11:10:49;6.80;99.90
983;DHT22;480;48.124;11.578;2023-02-15T11:13:22;6.80;99.90
983;DHT22;480;48.124;11.578;2023-02-15T11:15:55;6.80;99.90
983;DHT22;480;48.124;11.578;2023-02-15T11:18:28;7.10;99.90
983;DHT22;480;48.124;11.578;2023-02-15T11:21:02;7.30;99.90
983;DHT22;480;48.124;11.578;2023-02-15T11:23:32;7.40;99.90
983;DHT22;480;48.124;11.578;2023-02-15T11:26:03;7.40;99.90
983;DHT22;480;48.124;11.578;2023-02-15T11:28:37;7.60;99.90
983;DHT22;480;48.124;11.578;2023-02-15T11:31:15;7.80;99.90
983;DHT22;480;48.124;11.578;2023-02-15T11:33:46;7.60;99.90
983;DHT22;480;48.124;11.578;2023-02-15T11:36:18;7.40;99.90
983;DHT22;480;48.124;11.578;2023-02-15T11:38:50;7.30;99.90
983;DHT22;480;48.124;11.578;2023-02-15T11:41:21;7.40;99.90
983;DHT22;480;48.124;11.578;2023-02-15T11:43:56;7.50;99.90
983;DHT22;480;48.124;11.578;2023-02-15T11:46:25;7.70;99.90
983;DHT22;480;48.124;11.578;2023-02-15T11:48:52;7.80;99.90
983;DHT22;480;48.124;11.578;2023-02-15T11:51:21;8.00;99.90
983;DHT22;480;48.124;11.578;2023-02-15T11:53:49;8.00;99.90
983;DHT22;480;48.124;11.578;2023-02-15T11:56:23;8.20;99.90
983;DHT22;480;48.124;11.578;2023-02-15T11:58:55;8.30;99.90
983;DHT22;480;48.124;11.578;2023-02-15T12:01:30;8.40;99.90
983;DHT22;480;48.124;11.578;2023-02-15T12:04:06;8.40;99.90
983;DHT22;480;48.124;11.578;2023-02-15T12:06:44;8.40;99.90
983;DHT22;480;48.124;11.578;2023-02-15T12:09:18;8.40;99.90
983;DHT22;480;48.124;11.578;2023-02-15T12:11:47;8.20;99.90
983;DHT22;480;48.124;11.578;2023-02-15T12:14:16;8.10;99.90
983;DHT22;480;48.124;11.578;2023-02-15T12:16:45;8.10;99.90
983;DHT22;480;48.124;11.578;2023-02-15T12:19:25;7.80;99.90
983;DHT22;480;48.124;11.578;2023-02-15T12:21:57;7.80;99.90
983;DHT22;480;48.124;11.578;2023-02-15T12:24:29;8.00;99.90
983;DHT22;480;48.124;11.578;2023-02-15T12:27:01;7.90;99.90
983;DHT22;480;48.124;11.578;2023-02-15T12:29:35;7.90;99.90
983;DHT22;480;48.124;11.578;2023-02-15T12:32:21;8.10;99.90
983;DHT22;480;48.124;11.578;2023-02-15T12:34:52;8.10;99.90
983;DHT22;480;48.124;11.578;2023-02-15T12:37:35;8.30;99.90
983;DHT22;480;48.124;11.578;2023-02-15T12:40:20;8.40;99.90
983;DHT22;480;48.124;11.578;2023-02-15T12:42:56;8.40;99.90
983;DHT22;480;48.124;11.578;2023-02-15T12:45:39;8.40;99.90
983;DHT22;480;48.124;11.578;2023-02-15T12:48:14;8.20;99.90
983;DHT22;480;48.124;11.578;2023-02-15T12:50:52;8.30;99.90
983;DHT22;480;48.124;11.578;2023-02-15T12:53:37;8.30;99.90
983;DHT22;480;48.124;11.578;2023-02-15T12:56:11;8.40;99.90
983;DHT22;480;48.124;11.578;2023-02-15T12:58:41;8.60;99.90
983;DHT22;480;48.124;11.578;2023-02-15T13:01:25;8.70;99.90
983;DHT22;480;48.124;11.578;2023-02-15T13:03:57;8.60;99.90
983;DHT22;480;48.124;11.578;2023-02-15T13:06:27;8.50;99.90
983;DHT22;480;48.124;11.578;2023-02-15T13:09:06;8.60;99.90
983;DHT22;480;48.124;11.578;2023-02-15T13:11:35;8.50;99.90
983;DHT22;480;48.124;11.578;2023-02-15T13:14:15;8.40;99.90
983;DHT22;480;48.124;11.578;2023-02-15T13:16:47;8.40;99.90
983;DHT22;480;48.124;11.578;2023-02-15T13:19:18;8.50;99.90
983;DHT22;480;48.124;11.578;2023-02-15T13:21:49;8.40;99.90
983;DHT22;480;48.124;11.578;2023-02-15T13:24:21;8.60;99.90
983;DHT22;480;48.124;11.578;2023-02-15T13:26:50;8.80;99.90
983;DHT22;480;48.124;11.578;2023-02-15T13:29:22;8.90;99.90
983;DHT22;480;48.124;11.578;2023-02-15T13:31:54;9.20;99.90
983;DHT22;480;48.124;11.578;2023-02-15T13:34:25;9.30;99.90
983;DHT22;480;48.124;11.578;2023-02-15T13:36:57;9.50;99.90
983;DHT22;480;48.124;11.578;2023-02-15T13:39:35;9.50;99.90
983;DHT22;480;48.124;11.578;2023-02-15T13:42:14;9.50;99.90
983;DHT22;480;48.124;11.578;2023-02-15T13:44:59;9.30;99.90
983;DHT22;480;48.124;11.578;2023-02-15T13:47:37;9.40;99.90
983;DHT22;480;48.124;11.578;2023-02-15T13:50:20;9.10;99.90
983;DHT22;480;48.124;11.578;2023-02-15T13:53:07;9.20;99.90
983;DHT22;480;48.124;11.578;2023-02-15T13:55:40;9.10;99.90
983;DHT22;480;48.124;11.578;2023-02-15T13:58:31;9.10;99.90
983;DHT22;480;48.124;11.578;2023-02-15T14:01:08;9.20;99.90
983;DHT22;480;48.124;11.578;2023-02-15T14:04:15;9.60;99.90
983;DHT22;480;48.124;11.578;2023-02-15T14:07:27;9.50;99.90
983;DHT22;480;48.124;11.578;2023-02-15T14:10:06;9.40;99.90
983;DHT22;480;48.124;11.578;2023-02-15T14:12:55;9.30;99.90
983;DHT22;480;48.124;11.578;2023-02-15T14:15:32;9.40;99.90
983;DHT22;480;48.124;11.578;2023-02-15T14:18:12;9.30;99.90
983;DHT22;480;48.124;11.578;2023-02-15T14:20:51;9.30;99.90
983;DHT22;480;48.124;11.578;2023-02-15T14:23:32;9.00;99.90
983;DHT22;480;48.124;11.578;2023-02-15T14:26:04;9.00;99.90
983;DHT22;480;48.124;11.578;2023-02-15T14:28:41;9.00;99.90
983;DHT22;480;48.124;11.578;2023-02-15T14:31:12;8.90;99.90
983;DHT22;480;48.124;11.578;2023-02-15T14:33:43;8.80;99.90
983;DHT22;480;48.124;11.578;2023-02-15T14:36:17;8.90;99.90
983;DHT22;480;48.124;11.578;2023-02-15T14:39:01;8.60;99.90
983;DHT22;480;48.124;11.578;2023-02-15T14:41:36;8.60;99.90
983;DHT22;480;48.124;11.578;2023-02-15T14:44:10;8.20;99.90
983;DHT22;480;48.124;11.578;2023-02-15T14:46:45;8.10;99.90
983;DHT22;480;48.124;11.578;2023-02-15T14:49:16;8.10;99.90
983;DHT22;480;48.124;11.578;2023-02-15T14:52:02;8.30;99.90
983;DHT22;480;48.124;11.578;2023-02-15T14:54:58;8.20;99.90
983;DHT22;480;48.124;11.578;2023-02-15T14:57:32;8.20;99.90
983;DHT22;480;48.124;11.578;2023-02-15T15:00:04;8.20;99.90
983;DHT22;480;48.124;11.578;2023-02-15T15:02:50;8.10;99.90
983;DHT22;480;48.124;11.578;2023-02-15T15:05:21;8.20;99.90
983;DHT22;480;48.124;11.578;2023-02-15T15:08:05;8.40;99.90
983;DHT22;480;48.124;11.578;2023-02-15T15:10:44;8.50;99.90
983;DHT22;480;48.124;11.578;2023-02-15T15:13:36;8.60;99.90
983;DHT22;480;48.124;11.578;2023-02-15T15:16:30;8.30;99.90
983;DHT22;480;48.124;11.578;2023-02-15T15:18:58;8.10;99.90
983;DHT22;480;48.124;11.578;2023-02-15T15:21:55;8.00;99.90
983;DHT22;480;48.124;11.578;2023-02-15T15:24:48;8.00;99.90
983;DHT22;480;48.124;11.578;2023-02-15T15:27:47;7.80;99.90
983;DHT22;480;48.124;11.578;2023-02-15T15:31:24;8.00;99.90
983;DHT22;480;48.124;11.578;2023-02-15T15:34:40;8.00;99.90
983;DHT22;480;48.124;11.578;2023-02-15T15:37:51;8.10;99.90
983;DHT22;480;48.124;11.578;2023-02-15T15:41:05;8.00;99.90
983;DHT22;480;48.124;11.578;2023-02-15T15:44:04;7.90;99.90
983;DHT22;480;48.124;11.578;2023-02-15T15:50:04;7.70;99.90
983;DHT22;480;48.124;11.578;2023-02-15T15:52:41;7.70;99.90
983;DHT22;480;48.124;11.578;2023-02-15T15:55:27;7.70;99.90
983;DHT22;480;48.124;11.578;2023-02-15T15:58:14;7.60;99.90
983;DHT22;480;48.124;11.578;2023-02-15T16:00:50;7.50;99.90
983;DHT22;480;48.124;11.578;2023-02-15T16:03:22;7.50;99.90
983;DHT22;480;48.124;11.578;2023-02-15T16:05:53;7.50;99.90
983;DHT22;480;48.124;11.578;2023-02-15T16:08:30;7.40;99.90
983;DHT22;480;48.124;11.578;2023-02-15T16:11:00;7.20;99.90
983;DHT22;480;48.124;11.578;2023-02-15T16:13:29;7.20;99.90
983;DHT22;480;48.124;11.578;2023-02-15T16:15:58;6.90;99.90
983;DHT22;480;48.124;11.578;2023-02-15T16:18:30;6.70;99.90
983;DHT22;480;48.124;11.578;2023-02-15T16:21:18;6.60;99.90
983;DHT22;480;48.124;11.578;2023-02-15T16:24:16;6.60;99.90
983;DHT22;480;48.124;11.578;2023-02-15T16:27:08;6.50;99.90
983;DHT22;480;48.124;11.578;2023-02-15T16:29:39;6.30;99.90
983;DHT22;480;48.124;11.578;2023-02-15T16:32:21;6.10;99.90
983;DHT22;480;48.124;11.578;2023-02-15T16:34:53;6.00;99.90
983;DHT22;480;48.124;11.578;2023-02-15T16:37:24;5.80;99.90
983;DHT22;480;48.124;11.578;2023-02-15T16:39:55;5.80;99.90
983;DHT22;480;48.124;11.578;2023-02-15T16:42:27;5.80;99.90
983;DHT22;480;48.124;11.578;2023-02-15T16:45:21;5.70;99.90
983;DHT22;480;48.124;11.578;2023-02-15T16:48:23;5.60;99.90
983;DHT22;480;48.124;11.578;2023-02-15T16:51:31;5.60;99.90
983;DHT22;480;48.124;11.578;2023-02-15T16:57:59;5.30;99.90
983;DHT22;480;48.124;11.578;2023-02-15T17:01:13;5.20;99.90
983;DHT22;480;48.124;11.578;2023-02-15T17:03:51;5.10;99.90
983;DHT22;480;48.124;11.578;2023-02-15T17:06:21;4.90;99.90
983;DHT22;480;48.124;11.578;2023-02-15T17:08:49;4.80;99.90
983;DHT22;480;48.124;11.578;2023-02-15T17:11:18;4.80;99.90
983;DHT22;480;48.124;11.578;2023-02-15T17:14:12;4.80;99.90
983;DHT22;480;48.124;11.578;2023-02-15T17:16:45;4.60;99.90
983;DHT22;480;48.124;11.578;2023-02-15T17:19:19;4.50;99.90
983;DHT22;480;48.124;11.578;2023-02-15T17:21:50;4.30;99.90
983;DHT22;480;48.124;11.578;2023-02-15T17:24:22;4.10;99.90
983;DHT22;480;48.124;11.578;2023-02-15T17:26:55;3.90;99.90
983;DHT22;480;48.124;11.578;2023-02-15T17:29:32;3.60;99.90
983;DHT22;480;48.124;11.578;2023-02-15T17:32:01;3.20;99.90
983;DHT22;480;48.124;11.578;2023-02-15T17:34:44;3.00;99.90
983;DHT22;480;48.124;11.578;2023-02-15T17:37:25;3.00;99.90
983;DHT22;480;48.124;11.578;2023-02-15T17:39:54;2.90;99.90
983;DHT22;480;48.124;11.578;2023-02-15T17:42:22;2.90;99.90